createdAt,value
2023-04-02T00:01:20.328Z,85.98
2023-04-02T00:03:59.705Z,85.99
2023-04-02T00:06:32.999Z,85.92
2023-04-02T00:09:17.381Z,85.79
2023-04-02T00:11:54.932Z,85.70
2023-04-02T00:14:34.021Z,85.75
2023-04-02T00:17:05.683Z,85.69
2023-04-02T00:19:44.349Z,85.64
2023-04-02T00:22:27.148Z,85.61
2023-04-02T00:24:57.242Z,85.65
2023-04-02T00:27:25.420Z,85.70
2023-04-02T00:29:59.525Z,85.68
2023-04-02T00:32:31.449Z,85.59
2023-04-02T00:35:00.583Z,85.61
2023-04-02T00:37:39.011Z,85.49
2023-04-02T00:40:15.491Z,85.51
2023-04-02T00:42:44.933Z,85.52
2023-04-02T00:45:35.991Z,85.60
2023-04-02T00:48:23.102Z,85.63
2023-04-02T00:50:53.534Z,85.68
2023-04-02T00:53:28.867Z,85.69
2023-04-02T00:55:59.482Z,85.62
2023-04-02T00:58:34.174Z,85.61
2023-04-02T01:01:02.512Z,85.61
2023-04-02T01:03:36.594Z,85.66
2023-04-02T01:06:11.683Z,85.69
2023-04-02T01:09:07.358Z,85.75
2023-04-02T01:12:03.886Z,85.76
2023-04-02T01:14:44.542Z,85.86
2023-04-02T01:17:37.300Z,85.91
2023-04-02T01:20:38.060Z,85.96
2023-04-02T01:23:20.455Z,85.92
2023-04-02T01:26:01.591Z,85.85
2023-04-02T01:29:01.055Z,85.88
2023-04-02T01:31:31.323Z,85.94
2023-04-02T01:34:04.699Z,85.94
2023-04-02T01:36:47.791Z,85.89
2023-04-02T01:39:22.112Z,85.94
2023-04-02T01:42:01.845Z,86.01
2023-04-02T01:44:37.636Z,86.09
2023-04-02T01:47:11.521Z,86.14
2023-04-02T01:49:40.601Z,86.12
2023-04-02T01:52:13.671Z,86.02
2023-04-02T01:54:42.490Z,85.85
2023-04-02T01:57:11.151Z,85.75
2023-04-02T01:59:40.365Z,85.79
2023-04-02T02:02:13.461Z,85.93
2023-04-02T02:04:42.433Z,86.01
2023-04-02T02:07:16.469Z,85.93
2023-04-02T02:09:49.122Z,85.82
2023-04-02T02:12:17.338Z,85.76
2023-04-02T02:14:48.192Z,85.71
2023-04-02T02:17:19.235Z,85.62
2023-04-02T02:19:53.049Z,85.52
2023-04-02T02:22:29.693Z,85.50
2023-04-02T02:25:00.548Z,85.54
2023-04-02T02:27:43.261Z,85.52
2023-04-02T02:30:20.257Z,85.50
2023-04-02T02:33:22.062Z,85.59
2023-04-02T02:35:54.902Z,85.68
2023-04-02T02:38:54.992Z,85.71
2023-04-02T02:41:53.839Z,85.48
2023-04-02T02:44:28.672Z,85.37
2023-04-02T02:47:16.061Z,85.41
2023-04-02T02:49:49.906Z,85.38
2023-04-02T02:52:27.937Z,85.47
2023-04-02T02:55:13.227Z,85.48
2023-04-02T02:58:04.638Z,85.49
2023-04-02T03:00:37.871Z,85.48
2023-04-02T03:03:11.585Z,85.53
2023-04-02T03:05:41.883Z,85.46
2023-04-02T03:08:25.153Z,85.47
2023-04-02T03:10:59.405Z,85.50
2023-04-02T03:13:37.005Z,85.35
2023-04-02T03:16:17.273Z,85.28
2023-04-02T03:18:56.915Z,85.26
2023-04-02T03:21:34.203Z,85.38
2023-04-02T03:24:12.354Z,85.39
2023-04-02T03:26:59.090Z,85.34
2023-04-02T03:29:32.182Z,85.23
2023-04-02T03:32:06.501Z,85.28
2023-04-02T03:34:51.970Z,85.30
2023-04-02T03:37:26.108Z,85.36
2023-04-02T03:40:10.118Z,85.49
2023-04-02T03:43:02.708Z,85.59
2023-04-02T03:45:41.373Z,85.81
2023-04-02T03:48:17.933Z,85.89
2023-04-02T03:51:48.808Z,85.77
2023-04-02T03:54:17.868Z,85.95
2023-04-02T03:56:48.221Z,86.22
2023-04-02T03:59:42.171Z,86.28
2023-04-02T04:03:01.983Z,86.34
2023-04-02T04:05:35.745Z,86.44
2023-04-02T04:08:16.050Z,86.57
2023-04-02T04:10:44.567Z,86.70
2023-04-02T04:13:17.934Z,86.79
2023-04-02T04:15:46.179Z,86.80
2023-04-02T04:18:37.936Z,86.94
2023-04-02T04:21:37.221Z,86.97
2023-04-02T04:24:22.772Z,86.97
2023-04-02T04:27:04.000Z,86.97
2023-04-02T04:29:56.180Z,87.06
2023-04-02T04:34:53.686Z,86.91
2023-04-02T04:37:34.061Z,86.77
2023-04-02T04:40:26.082Z,86.62
2023-04-02T04:43:02.911Z,86.74
2023-04-02T04:46:00.163Z,86.93
2023-04-02T04:48:56.031Z,87.02
2023-04-02T04:51:39.365Z,87.10
2023-04-02T04:54:16.418Z,86.88
2023-04-02T04:56:56.225Z,86.71
2023-04-02T04:59:27.785Z,86.69
2023-04-02T05:02:16.674Z,86.63
2023-04-02T05:04:49.685Z,86.55
2023-04-02T05:07:46.129Z,86.57
2023-04-02T05:10:28.773Z,86.57
2023-04-02T05:13:16.927Z,86.57
2023-04-02T05:16:01.868Z,86.62
2023-04-02T05:19:05.528Z,86.60
2023-04-02T05:21:45.188Z,86.53
2023-04-02T05:24:32.017Z,86.56
2023-04-02T05:27:05.529Z,86.61
2023-04-02T05:29:38.703Z,86.61
2023-04-02T05:32:13.262Z,86.52
2023-04-02T05:34:46.488Z,86.48
2023-04-02T05:37:24.646Z,86.42
2023-04-02T05:39:59.039Z,86.41
2023-04-02T05:42:31.506Z,86.38
2023-04-02T05:45:21.046Z,86.54
2023-04-02T05:47:52.314Z,86.64
2023-04-02T05:50:30.506Z,86.63
2023-04-02T05:53:22.479Z,86.65
2023-04-02T05:55:57.817Z,86.65
2023-04-02T05:58:36.960Z,86.72
2023-04-02T06:01:47.406Z,86.80
2023-04-02T06:04:41.415Z,86.92
2023-04-02T06:07:24.193Z,87.00
2023-04-02T06:10:12.758Z,86.92
2023-04-02T06:12:46.942Z,86.67
2023-04-02T06:15:23.299Z,86.45
2023-04-02T06:18:16.360Z,86.32
2023-04-02T06:20:46.211Z,86.27
2023-04-02T06:23:20.001Z,86.25
2023-04-02T06:26:09.427Z,86.34
2023-04-02T06:28:47.940Z,86.45
2023-04-02T06:31:36.615Z,86.47
2023-04-02T06:34:14.107Z,86.44
2023-04-02T06:36:44.182Z,86.32
2023-04-02T06:39:20.345Z,86.29
2023-04-02T06:42:01.539Z,86.20
2023-04-02T06:44:49.789Z,86.10
2023-04-02T06:47:44.054Z,86.12
2023-04-02T06:50:27.803Z,86.05
2023-04-02T06:53:00.099Z,85.97
2023-04-02T06:55:48.815Z,85.98
2023-04-02T06:58:21.921Z,86.03
2023-04-02T07:00:51.357Z,86.02
2023-04-02T07:03:30.009Z,85.75
2023-04-02T07:06:02.622Z,85.50
2023-04-02T07:08:31.220Z,85.45
2023-04-02T07:10:59.444Z,85.47
2023-04-02T07:13:28.654Z,85.37
2023-04-02T07:15:57.568Z,85.18
2023-04-02T07:18:33.552Z,85.04
2023-04-02T07:21:04.343Z,84.52
2023-04-02T07:23:32.546Z,84.54
2023-04-02T07:26:02.219Z,84.21
2023-04-02T07:28:30.510Z,84.25
2023-04-02T07:30:58.937Z,83.98
2023-04-02T07:33:30.170Z,83.83
2023-04-02T07:35:59.128Z,83.62
2023-04-02T07:38:27.542Z,83.36
2023-04-02T07:40:56.054Z,83.30
2023-04-02T07:43:24.198Z,83.40
2023-04-02T07:45:54.086Z,83.39
2023-04-02T07:48:23.347Z,83.60
2023-04-02T07:50:51.902Z,83.80
2023-04-02T07:53:29.979Z,83.84
2023-04-02T07:56:04.043Z,83.94
2023-04-02T07:58:33.890Z,83.87
2023-04-02T08:01:03.730Z,83.99
2023-04-02T08:03:33.170Z,84.15
2023-04-02T08:06:01.821Z,84.20
2023-04-02T08:08:29.868Z,84.45
2023-04-02T08:10:59.023Z,84.38
2023-04-02T08:13:27.114Z,84.56
2023-04-02T08:15:58.899Z,84.76
2023-04-02T08:18:27.265Z,84.90
2023-04-02T08:20:55.437Z,85.34
2023-04-02T08:23:24.377Z,85.66
2023-04-02T08:25:54.255Z,85.82
2023-04-02T08:28:23.257Z,85.88
2023-04-02T08:30:52.643Z,86.14
2023-04-02T08:33:20.789Z,86.23
2023-04-02T08:35:50.727Z,86.35
2023-04-02T08:38:21.685Z,86.37
2023-04-02T08:40:52.115Z,86.59
2023-04-02T08:43:42.690Z,86.69
2023-04-02T08:46:33.531Z,86.80
2023-04-02T08:49:10.827Z,86.90
2023-04-02T08:51:38.907Z,86.67
2023-04-02T08:54:31.788Z,86.48
2023-04-02T08:57:34.466Z,86.33
2023-04-02T09:00:24.019Z,86.13
2023-04-02T09:02:58.576Z,85.87
2023-04-02T09:05:32.019Z,85.72
2023-04-02T09:08:05.049Z,85.66
2023-04-02T09:10:44.987Z,85.63
2023-04-02T09:13:22.854Z,86.22
2023-04-02T09:15:58.705Z,86.29
2023-04-02T09:18:30.263Z,85.69
2023-04-02T09:20:58.618Z,85.10
2023-04-02T09:23:28.293Z,84.75
2023-04-02T09:26:04.087Z,84.62
2023-04-02T09:28:33.238Z,84.42
2023-04-02T09:31:24.682Z,84.40
2023-04-02T09:33:55.314Z,84.31
2023-04-02T09:36:38.355Z,83.76
2023-04-02T09:39:17.724Z,83.54
2023-04-02T09:41:55.785Z,83.28
2023-04-02T09:44:31.241Z,83.43
2023-04-02T09:47:03.972Z,83.33
2023-04-02T09:49:37.248Z,83.12
2023-04-02T09:52:11.048Z,83.00
2023-04-02T09:54:41.705Z,82.98
2023-04-02T09:57:25.128Z,82.75
2023-04-02T10:00:29.783Z,82.89
2023-04-02T10:03:35.164Z,83.22
2023-04-02T10:06:08.410Z,83.13
2023-04-02T10:08:39.341Z,83.32
2023-04-02T10:11:16.386Z,83.21
2023-04-02T10:13:53.928Z,83.39
2023-04-02T10:16:27.965Z,83.47
2023-04-02T10:18:58.922Z,83.49
2023-04-02T10:21:31.389Z,83.35
2023-04-02T10:24:00.398Z,83.78
2023-04-02T10:26:34.655Z,83.28
2023-04-02T10:29:21.178Z,83.40
2023-04-02T10:32:21.561Z,83.67
2023-04-02T10:35:01.262Z,83.38
2023-04-02T10:37:47.255Z,83.30
2023-04-02T10:40:27.499Z,83.53
2023-04-02T10:43:17.111Z,83.38
2023-04-02T10:45:59.116Z,83.47
2023-04-02T10:48:59.943Z,83.28
2023-04-02T10:51:34.000Z,83.47
2023-04-02T10:54:18.381Z,83.61
2023-04-02T10:56:51.114Z,84.01
2023-04-02T10:59:33.014Z,84.41
2023-04-02T11:04:45.429Z,84.89
2023-04-02T11:07:27.243Z,85.10
2023-04-02T11:09:58.755Z,85.10
2023-04-02T11:12:58.732Z,85.15
2023-04-02T11:15:30.359Z,84.75
2023-04-02T11:17:58.755Z,85.06
2023-04-02T11:20:48.317Z,84.83
2023-04-02T11:23:21.126Z,84.91
2023-04-02T11:25:49.331Z,85.08
2023-04-02T11:28:32.160Z,85.38
2023-04-02T11:31:00.335Z,85.58
2023-04-02T11:33:38.402Z,85.71
2023-04-02T11:36:46.974Z,86.03
2023-04-02T11:39:59.896Z,86.03
2023-04-02T11:42:30.453Z,86.16
2023-04-02T11:45:24.095Z,86.45
2023-04-02T11:48:08.069Z,86.71
2023-04-02T11:50:41.584Z,87.07
2023-04-02T11:53:13.007Z,87.12
2023-04-02T11:55:43.537Z,87.23
2023-04-02T11:58:48.978Z,87.51
2023-04-02T12:01:30.072Z,87.67
2023-04-02T12:04:16.260Z,88.13
2023-04-02T12:06:47.311Z,88.07
2023-04-02T12:09:29.157Z,87.99
2023-04-02T12:12:00.424Z,88.15
2023-04-02T12:14:43.917Z,88.20
2023-04-02T12:17:30.552Z,88.42
2023-04-02T12:20:10.543Z,88.54
2023-04-02T12:22:41.140Z,88.57
2023-04-02T12:25:24.133Z,88.60
2023-04-02T12:28:11.492Z,88.67
2023-04-02T12:30:40.230Z,88.71
2023-04-02T12:33:20.451Z,88.69
2023-04-02T12:35:51.401Z,88.66
2023-04-02T12:38:21.575Z,88.66
2023-04-02T12:41:19.116Z,88.65
2023-04-02T12:43:47.144Z,88.55
2023-04-02T12:46:15.503Z,88.52
2023-04-02T12:48:43.691Z,88.49
2023-04-02T12:51:11.898Z,88.47
2023-04-02T12:53:41.470Z,88.28
2023-04-02T12:56:21.961Z,88.20
2023-04-02T12:58:57.750Z,88.06
2023-04-02T13:01:28.327Z,88.07
2023-04-02T13:04:14.765Z,88.08
2023-04-02T13:06:52.178Z,88.09
2023-04-02T13:09:31.527Z,88.18
2023-04-02T13:12:00.213Z,88.12
2023-04-02T13:14:28.634Z,88.10
2023-04-02T13:16:56.805Z,88.34
2023-04-02T13:19:28.895Z,88.50
2023-04-02T13:21:58.220Z,88.59
2023-04-02T13:24:28.989Z,88.73
2023-04-02T13:26:59.306Z,88.85
2023-04-02T13:29:31.748Z,88.78
2023-04-02T13:32:03.115Z,88.76
2023-04-02T13:34:32.010Z,88.92
2023-04-02T13:37:00.472Z,88.97
2023-04-02T13:39:30.880Z,89.01
2023-04-02T13:42:03.642Z,88.91
2023-04-02T13:44:34.260Z,88.83
2023-04-02T13:47:02.641Z,88.77
2023-04-02T13:49:32.098Z,88.70
2023-04-02T13:52:05.427Z,88.64
2023-04-02T13:55:00.181Z,88.63
2023-04-02T13:57:28.211Z,88.56
2023-04-02T13:59:57.132Z,88.60
2023-04-02T14:02:26.093Z,88.75
2023-04-02T14:05:33.332Z,88.83
2023-04-02T14:08:27.174Z,88.72
2023-04-02T14:11:07.746Z,88.54
2023-04-02T14:13:54.705Z,88.56
2023-04-02T14:17:02.749Z,88.50
2023-04-02T14:19:46.313Z,88.48
2023-04-02T14:22:27.680Z,88.48
2023-04-02T14:25:29.128Z,88.35
2023-04-02T14:28:15.953Z,88.16
2023-04-02T14:31:15.814Z,88.09
2023-04-02T14:33:53.993Z,87.98
2023-04-02T14:36:28.650Z,88.04
2023-04-02T14:39:13.932Z,88.18
2023-04-02T14:42:02.243Z,88.30
2023-04-02T14:44:36.830Z,88.35
2023-04-02T14:47:37.333Z,88.49
2023-04-02T14:50:16.633Z,88.56
2023-04-02T14:52:47.806Z,88.66
2023-04-02T14:55:33.035Z,88.63
2023-04-02T14:58:05.553Z,88.60
2023-04-02T15:00:51.904Z,88.49
2023-04-02T15:03:25.998Z,88.44
2023-04-02T15:05:58.900Z,88.46
2023-04-02T15:08:48.331Z,88.52
2023-04-02T15:11:26.559Z,88.47
2023-04-02T15:14:06.307Z,88.43
2023-04-02T15:16:36.573Z,88.39
2023-04-02T15:19:13.196Z,88.28
2023-04-02T15:22:09.704Z,88.18
2023-04-02T15:24:56.403Z,88.18
2023-04-02T15:27:34.480Z,88.57
2023-04-02T15:30:17.875Z,88.61
2023-04-02T15:32:46.807Z,88.60
2023-04-02T15:35:36.678Z,88.61
2023-04-02T15:38:17.518Z,88.67
2023-04-02T15:41:00.466Z,88.58
2023-04-02T15:43:30.471Z,88.49
2023-04-02T15:46:17.197Z,88.55
2023-04-02T15:49:00.693Z,88.63
2023-04-02T15:51:48.434Z,88.73
2023-04-02T15:54:32.705Z,89.01
2023-04-02T15:57:28.639Z,88.98
2023-04-02T16:00:14.896Z,89.17
2023-04-02T16:03:12.316Z,89.24
2023-04-02T16:05:58.365Z,89.25
2023-04-02T16:08:26.295Z,89.20
2023-04-02T16:10:54.500Z,89.16
2023-04-02T16:13:30.624Z,89.14
2023-04-02T16:16:27.034Z,89.15
2023-04-02T16:19:02.505Z,89.21
2023-04-02T16:21:39.700Z,89.16
2023-04-02T16:24:13.586Z,89.15
2023-04-02T16:26:41.476Z,89.15
2023-04-02T16:29:19.257Z,89.16
2023-04-02T16:32:01.854Z,89.20
2023-04-02T16:34:48.631Z,89.24
2023-04-02T16:37:34.573Z,89.32
2023-04-02T16:40:28.401Z,89.29
2023-04-02T16:43:25.542Z,89.26
2023-04-02T16:46:00.052Z,89.24
2023-04-02T16:48:42.908Z,89.30
2023-04-02T16:51:26.694Z,89.39
2023-04-02T16:54:19.680Z,89.44
2023-04-02T16:57:45.069Z,89.54
2023-04-02T17:00:44.090Z,89.68
2023-04-02T17:03:40.307Z,89.79
2023-04-02T17:06:13.241Z,89.91
2023-04-02T17:08:50.072Z,89.99
2023-04-02T17:11:24.868Z,90.08
2023-04-02T17:14:07.478Z,90.18
2023-04-02T17:16:50.397Z,90.25
2023-04-02T17:19:20.840Z,90.35
2023-04-02T17:21:53.387Z,90.41
2023-04-02T17:24:27.560Z,90.44
2023-04-02T17:27:22.136Z,90.50
2023-04-02T17:29:54.850Z,90.57
2023-04-02T17:32:27.251Z,90.60
2023-04-02T17:34:56.551Z,90.65
2023-04-02T17:37:57.000Z,90.72
2023-04-02T17:40:27.694Z,90.76
2023-04-02T17:43:14.203Z,90.75
2023-04-02T17:45:52.927Z,90.80
2023-04-02T17:48:36.381Z,90.83
2023-04-02T17:51:30.627Z,90.85
2023-04-02T17:54:10.527Z,90.92
2023-04-02T17:56:56.579Z,91.00
2023-04-02T17:59:54.289Z,91.04
2023-04-02T18:02:44.002Z,91.06
2023-04-02T18:05:12.274Z,91.09
2023-04-02T18:07:58.373Z,91.14
2023-04-02T18:10:46.672Z,91.16
2023-04-02T18:13:33.033Z,91.20
2023-04-02T18:16:11.399Z,91.21
2023-04-02T18:18:53.470Z,91.26
2023-04-02T18:21:24.761Z,91.28
2023-04-02T18:24:02.325Z,91.31
2023-04-02T18:26:48.437Z,91.33
2023-04-02T18:29:22.381Z,91.37
2023-04-02T18:32:25.755Z,91.38
2023-04-02T18:35:17.828Z,91.39
2023-04-02T18:38:47.418Z,91.40
2023-04-02T18:41:42.849Z,91.38
2023-04-02T18:44:36.755Z,91.37
2023-04-02T18:47:30.527Z,91.34
2023-04-02T18:50:16.976Z,91.31
2023-04-02T18:52:46.163Z,91.30
2023-04-02T18:55:28.087Z,91.27
2023-04-02T18:58:09.449Z,91.23
2023-04-02T19:04:39.593Z,91.16
2023-04-02T19:07:14.349Z,91.09
2023-04-02T19:09:48.613Z,91.09
2023-04-02T19:12:19.342Z,91.08
2023-04-02T19:14:49.756Z,91.08
2023-04-02T19:17:38.281Z,91.06
2023-04-02T19:20:34.238Z,91.05
2023-04-02T19:23:08.785Z,91.05
2023-04-02T19:25:37.733Z,91.04
2023-04-02T19:28:24.121Z,91.03
2023-04-02T19:31:07.519Z,91.02
2023-04-02T19:33:47.456Z,91.01
2023-04-02T19:36:21.419Z,91.01
2023-04-02T19:39:15.130Z,91.01
2023-04-02T19:41:51.520Z,91.00
2023-04-02T19:44:21.163Z,91.00
2023-04-02T19:46:51.599Z,91.01
2023-04-02T19:49:33.876Z,91.01
2023-04-02T19:52:02.005Z,90.99
2023-04-02T19:54:30.191Z,90.92
2023-04-02T19:56:58.308Z,90.90
2023-04-02T19:59:26.805Z,90.84
2023-04-02T20:01:55.406Z,90.79
2023-04-02T20:04:23.444Z,90.74
2023-04-02T20:06:51.828Z,90.59
2023-04-02T20:09:21.269Z,90.34
2023-04-02T20:11:49.176Z,90.08
2023-04-02T20:14:17.152Z,89.79
2023-04-02T20:16:45.880Z,89.59
2023-04-02T20:19:14.257Z,89.40
2023-04-02T20:21:42.440Z,88.94
2023-04-02T20:24:11.077Z,88.72
2023-04-02T20:26:39.214Z,88.50
2023-04-02T20:29:07.320Z,88.50
2023-04-02T20:31:36.163Z,88.52
2023-04-02T20:34:05.654Z,88.55
2023-04-02T20:36:34.075Z,88.64
2023-04-02T20:39:02.729Z,88.68
2023-04-02T20:41:31.201Z,88.74
2023-04-02T20:43:59.117Z,88.79
2023-04-02T20:46:27.136Z,88.83
2023-04-02T20:48:55.466Z,88.89
2023-04-02T20:51:25.441Z,88.94
2023-04-02T20:53:54.114Z,88.98
2023-04-02T20:56:26.687Z,89.02
2023-04-02T20:58:54.581Z,89.06
2023-04-02T21:01:25.275Z,89.08
2023-04-02T21:03:57.825Z,89.09
2023-04-02T21:06:31.081Z,89.08
2023-04-02T21:08:59.257Z,89.07
2023-04-02T21:11:27.259Z,89.06
2023-04-02T21:13:56.557Z,89.03
2023-04-02T21:16:31.432Z,88.99
2023-04-02T21:19:02.265Z,88.93
2023-04-02T21:21:30.977Z,88.87
2023-04-02T21:24:02.132Z,88.82
2023-04-02T21:26:34.203Z,88.71
2023-04-02T21:29:03.922Z,88.30
2023-04-02T21:31:37.748Z,88.14
2023-04-02T21:34:07.171Z,87.98
2023-04-02T21:36:37.612Z,87.68
2023-04-02T21:39:12.023Z,87.48
2023-04-02T21:41:42.883Z,87.46
2023-04-02T21:44:14.817Z,87.38
2023-04-02T21:46:43.778Z,87.16
2023-04-02T21:49:14.350Z,86.86
2023-04-02T21:51:44.687Z,86.73
2023-04-02T21:54:13.880Z,86.35
2023-04-02T21:56:45.226Z,85.95
2023-04-02T21:59:15.312Z,85.63
2023-04-02T22:01:47.064Z,85.58
2023-04-02T22:04:20.705Z,85.49
2023-04-02T22:06:49.805Z,85.59
2023-04-02T22:09:21.968Z,85.43
2023-04-02T22:11:51.723Z,85.29
2023-04-02T22:14:20.288Z,85.29
2023-04-02T22:16:48.235Z,85.02
2023-04-02T22:19:16.908Z,84.79
2023-04-02T22:21:45.718Z,84.31
2023-04-02T22:24:18.696Z,84.25
2023-04-02T22:26:47.080Z,84.34
2023-04-02T22:29:15.052Z,83.78
2023-04-02T22:31:44.206Z,83.08
2023-04-02T22:34:12.477Z,82.25
2023-04-02T22:36:41.270Z,82.14
2023-04-02T22:39:12.197Z,82.20
2023-04-02T22:41:40.426Z,81.89
2023-04-02T22:44:14.215Z,81.55
2023-04-02T22:46:50.058Z,80.75
2023-04-02T22:49:19.561Z,81.74
2023-04-02T22:51:48.001Z,80.82
2023-04-02T22:54:16.222Z,80.30
2023-04-02T22:56:44.422Z,80.16
2023-04-02T22:59:12.353Z,80.68
2023-04-02T23:01:40.884Z,80.71
2023-04-02T23:04:09.240Z,80.27
2023-04-02T23:06:37.114Z,80.36
2023-04-02T23:09:05.097Z,80.04
2023-04-02T23:11:33.221Z,79.61
2023-04-02T23:14:01.243Z,80.01
2023-04-02T23:16:30.011Z,79.75
2023-04-02T23:18:58.196Z,79.63
2023-04-02T23:21:26.880Z,79.60
2023-04-02T23:23:56.694Z,78.33
2023-04-02T23:26:29.450Z,78.10
2023-04-02T23:28:59.253Z,78.03
2023-04-02T23:31:27.994Z,78.19
2023-04-02T23:33:57.093Z,76.99
2023-04-02T23:36:31.836Z,77.73
2023-04-02T23:39:11.059Z,77.75
2023-04-02T23:41:41.317Z,77.22
2023-04-02T23:44:10.325Z,76.67
2023-04-02T23:46:38.365Z,76.00
2023-04-02T23:49:06.268Z,76.65
2023-04-02T23:51:34.550Z,76.83
2023-04-02T23:54:02.460Z,75.69
2023-04-02T23:56:30.581Z,75.73
2023-04-02T23:58:58.551Z,75.45
